sensor_id;sensor_type;location;lat;lon;timestamp;temperature;humidity
51719;DHT22;37795;53.236;5.704;2023-04-03T00:02:17;2.40;72.60
51719;DHT22;37795;53.236;5.704;2023-04-03T00:04:43;2.50;73.00
51719;DHT22;37795;53.236;5.704;2023-04-03T00:07:09;2.40;73.20
51719;DHT22;37795;53.236;5.704;2023-04-03T00:09:34;2.50;73.30
51719;DHT22;37795;53.236;5.704;2023-04-03T00:12:00;2.40;73.20
51719;DHT22;37795;53.236;5.704;2023-04-03T00:14:26;2.40;73.20
51719;DHT22;37795;53.236;5.704;2023-04-03T00:16:53;2.40;73.10
51719;DHT22;37795;53.236;5.704;2023-04-03T00:19:18;2.40;73.10
51719;DHT22;37795;53.236;5.704;2023-04-03T00:21:44;2.30;73.10
51719;DHT22;37795;53.236;5.704;2023-04-03T00:24:10;2.30;73.30
51719;DHT22;37795;53.236;5.704;2023-04-03T00:26:36;2.30;73.50
51719;DHT22;37795;53.236;5.704;2023-04-03T00:29:02;2.30;73.60
51719;DHT22;37795;53.236;5.704;2023-04-03T00:31:27;2.30;73.50
51719;DHT22;37795;53.236;5.704;2023-04-03T00:33:53;2.30;73.30
51719;DHT22;37795;53.236;5.704;2023-04-03T00:36:19;2.30;73.20
51719;DHT22;37795;53.236;5.704;2023-04-03T00:38:44;2.20;73.10
51719;DHT22;37795;53.236;5.704;2023-04-03T00:41:10;2.20;73.00
51719;DHT22;37795;53.236;5.704;2023-04-03T00:43:36;2.20;73.20
51719;DHT22;37795;53.236;5.704;2023-04-03T00:46:02;2.10;73.00
51719;DHT22;37795;53.236;5.704;2023-04-03T00:48:33;2.10;73.20
51719;DHT22;37795;53.236;5.704;2023-04-03T00:51:00;2.10;73.30
51719;DHT22;37795;53.236;5.704;2023-04-03T00:53:40;2.10;73.20
51719;DHT22;37795;53.236;5.704;2023-04-03T00:56:09;2.00;73.30
51719;DHT22;37795;53.236;5.704;2023-04-03T00:59:06;2.00;73.30
51719;DHT22;37795;53.236;5.704;2023-04-03T01:01:31;2.00;73.40
51719;DHT22;37795;53.236;5.704;2023-04-03T01:03:59;1.90;73.00
51719;DHT22;37795;53.236;5.704;2023-04-03T01:06:28;1.90;72.90
51719;DHT22;37795;53.236;5.704;2023-04-03T01:08:56;1.90;73.10
51719;DHT22;37795;53.236;5.704;2023-04-03T01:11:22;1.90;72.80
51719;DHT22;37795;53.236;5.704;2023-04-03T01:13:48;1.80;72.60
51719;DHT22;37795;53.236;5.704;2023-04-03T01:16:14;1.80;72.50
51719;DHT22;37795;53.236;5.704;2023-04-03T01:18:41;1.70;72.30
51719;DHT22;37795;53.236;5.704;2023-04-03T01:26:55;1.80;72.10
51719;DHT22;37795;53.236;5.704;2023-04-03T01:29:20;1.80;72.00
51719;DHT22;37795;53.236;5.704;2023-04-03T01:31:57;1.70;71.70
51719;DHT22;37795;53.236;5.704;2023-04-03T01:34:24;1.70;71.80
51719;DHT22;37795;53.236;5.704;2023-04-03T01:36:50;1.60;72.10
51719;DHT22;37795;53.236;5.704;2023-04-03T01:39:16;1.70;72.00
51719;DHT22;37795;53.236;5.704;2023-04-03T01:41:42;1.60;72.00
51719;DHT22;37795;53.236;5.704;2023-04-03T01:44:08;1.60;72.20
51719;DHT22;37795;53.236;5.704;2023-04-03T01:46:34;1.60;72.30
51719;DHT22;37795;53.236;5.704;2023-04-03T01:49:00;1.50;72.00
51719;DHT22;37795;53.236;5.704;2023-04-03T01:51:25;1.50;71.90
51719;DHT22;37795;53.236;5.704;2023-04-03T01:53:51;1.50;72.10
51719;DHT22;37795;53.236;5.704;2023-04-03T01:56:17;1.50;72.40
51719;DHT22;37795;53.236;5.704;2023-04-03T01:58:43;1.50;72.30
51719;DHT22;37795;53.236;5.704;2023-04-03T02:01:08;1.50;72.20
51719;DHT22;37795;53.236;5.704;2023-04-03T02:03:34;1.40;72.20
51719;DHT22;37795;53.236;5.704;2023-04-03T02:06:00;1.40;72.30
51719;DHT22;37795;53.236;5.704;2023-04-03T02:08:25;1.30;72.20
51719;DHT22;37795;53.236;5.704;2023-04-03T02:10:51;1.30;72.50
51719;DHT22;37795;53.236;5.704;2023-04-03T02:13:17;1.30;72.60
51719;DHT22;37795;53.236;5.704;2023-04-03T02:15:43;1.30;72.40
51719;DHT22;37795;53.236;5.704;2023-04-03T02:18:09;1.30;72.70
51719;DHT22;37795;53.236;5.704;2023-04-03T02:20:35;1.30;72.80
51719;DHT22;37795;53.236;5.704;2023-04-03T02:23:01;1.20;72.90
51719;DHT22;37795;53.236;5.704;2023-04-03T02:25:27;1.20;72.80
51719;DHT22;37795;53.236;5.704;2023-04-03T02:27:52;1.30;73.20
51719;DHT22;37795;53.236;5.704;2023-04-03T02:30:18;1.30;73.00
51719;DHT22;37795;53.236;5.704;2023-04-03T02:32:44;1.20;72.80
51719;DHT22;37795;53.236;5.704;2023-04-03T02:35:10;1.20;72.90
51719;DHT22;37795;53.236;5.704;2023-04-03T02:37:37;1.30;72.90
51719;DHT22;37795;53.236;5.704;2023-04-03T02:40:03;1.20;72.90
51719;DHT22;37795;53.236;5.704;2023-04-03T02:42:29;1.10;72.50
51719;DHT22;37795;53.236;5.704;2023-04-03T02:44:55;1.10;73.00
51719;DHT22;37795;53.236;5.704;2023-04-03T02:47:21;1.10;73.10
51719;DHT22;37795;53.236;5.704;2023-04-03T02:49:47;1.10;72.90
51719;DHT22;37795;53.236;5.704;2023-04-03T02:52:13;1.00;72.90
51719;DHT22;37795;53.236;5.704;2023-04-03T02:54:39;1.10;73.00
51719;DHT22;37795;53.236;5.704;2023-04-03T02:57:05;1.00;72.60
51719;DHT22;37795;53.236;5.704;2023-04-03T02:59:33;0.90;72.80
51719;DHT22;37795;53.236;5.704;2023-04-03T03:01:58;0.90;73.20
51719;DHT22;37795;53.236;5.704;2023-04-03T03:04:24;0.90;72.80
51719;DHT22;37795;53.236;5.704;2023-04-03T03:06:50;0.80;73.00
51719;DHT22;37795;53.236;5.704;2023-04-03T03:09:16;0.80;73.10
51719;DHT22;37795;53.236;5.704;2023-04-03T03:11:42;0.80;73.10
51719;DHT22;37795;53.236;5.704;2023-04-03T03:14:07;0.70;73.10
51719;DHT22;37795;53.236;5.704;2023-04-03T03:16:33;0.80;73.60
51719;DHT22;37795;53.236;5.704;2023-04-03T03:18:59;0.90;73.40
51719;DHT22;37795;53.236;5.704;2023-04-03T03:21:25;0.80;73.20
51719;DHT22;37795;53.236;5.704;2023-04-03T03:23:51;0.70;73.10
51719;DHT22;37795;53.236;5.704;2023-04-03T03:26:17;0.70;73.20
51719;DHT22;37795;53.236;5.704;2023-04-03T03:28:42;0.70;73.10
51719;DHT22;37795;53.236;5.704;2023-04-03T03:31:10;0.70;73.30
51719;DHT22;37795;53.236;5.704;2023-04-03T03:33:36;0.70;73.20
51719;DHT22;37795;53.236;5.704;2023-04-03T03:36:02;0.70;73.30
51719;DHT22;37795;53.236;5.704;2023-04-03T03:38:28;0.70;73.30
51719;DHT22;37795;53.236;5.704;2023-04-03T03:40:53;0.60;73.10
51719;DHT22;37795;53.236;5.704;2023-04-03T03:43:19;0.60;73.30
51719;DHT22;37795;53.236;5.704;2023-04-03T03:45:50;0.60;73.00
51719;DHT22;37795;53.236;5.704;2023-04-03T03:48:16;0.60;73.20
51719;DHT22;37795;53.236;5.704;2023-04-03T03:50:41;0.60;73.30
51719;DHT22;37795;53.236;5.704;2023-04-03T03:53:07;0.60;73.40
51719;DHT22;37795;53.236;5.704;2023-04-03T03:55:33;0.60;73.30
51719;DHT22;37795;53.236;5.704;2023-04-03T03:57:59;0.60;73.30
51719;DHT22;37795;53.236;5.704;2023-04-03T04:00:26;0.60;73.10
51719;DHT22;37795;53.236;5.704;2023-04-03T04:02:52;0.50;73.10
51719;DHT22;37795;53.236;5.704;2023-04-03T04:05:18;0.50;72.90
51719;DHT22;37795;53.236;5.704;2023-04-03T04:07:43;0.50;73.10
51719;DHT22;37795;53.236;5.704;2023-04-03T04:10:09;0.50;73.20
51719;DHT22;37795;53.236;5.704;2023-04-03T04:12:35;0.50;73.10
51719;DHT22;37795;53.236;5.704;2023-04-03T04:15:02;0.50;73.10
51719;DHT22;37795;53.236;5.704;2023-04-03T04:17:27;0.50;73.10
51719;DHT22;37795;53.236;5.704;2023-04-03T04:19:53;0.50;73.20
51719;DHT22;37795;53.236;5.704;2023-04-03T04:22:19;0.50;73.30
51719;DHT22;37795;53.236;5.704;2023-04-03T04:24:44;0.40;73.20
51719;DHT22;37795;53.236;5.704;2023-04-03T04:27:10;0.40;73.30
51719;DHT22;37795;53.236;5.704;2023-04-03T04:29:36;0.30;73.30
51719;DHT22;37795;53.236;5.704;2023-04-03T04:32:05;0.30;73.60
51719;DHT22;37795;53.236;5.704;2023-04-03T04:34:31;0.30;73.60
51719;DHT22;37795;53.236;5.704;2023-04-03T04:36:56;0.30;73.60
51719;DHT22;37795;53.236;5.704;2023-04-03T04:39:22;0.30;73.70
51719;DHT22;37795;53.236;5.704;2023-04-03T04:41:48;0.30;73.60
51719;DHT22;37795;53.236;5.704;2023-04-03T04:44:13;0.30;73.60
51719;DHT22;37795;53.236;5.704;2023-04-03T04:46:40;0.30;73.60
51719;DHT22;37795;53.236;5.704;2023-04-03T04:49:05;0.30;73.60
51719;DHT22;37795;53.236;5.704;2023-04-03T04:51:31;0.30;73.50
51719;DHT22;37795;53.236;5.704;2023-04-03T04:53:57;0.20;73.40
51719;DHT22;37795;53.236;5.704;2023-04-03T04:56:22;0.20;73.30
51719;DHT22;37795;53.236;5.704;2023-04-03T04:58:49;0.20;73.30
51719;DHT22;37795;53.236;5.704;2023-04-03T05:01:14;0.20;73.40
51719;DHT22;37795;53.236;5.704;2023-04-03T05:03:40;0.10;73.50
51719;DHT22;37795;53.236;5.704;2023-04-03T05:06:06;0.10;74.10
51719;DHT22;37795;53.236;5.704;2023-04-03T05:08:32;0.00;74.50
51719;DHT22;37795;53.236;5.704;2023-04-03T05:10:58;0.00;74.80
51719;DHT22;37795;53.236;5.704;2023-04-03T05:13:24;-0.10;75.20
51719;DHT22;37795;53.236;5.704;2023-04-03T05:15:49;0.00;75.20
51719;DHT22;37795;53.236;5.704;2023-04-03T05:18:15;-0.10;75.10
51719;DHT22;37795;53.236;5.704;2023-04-03T05:20:41;-0.10;75.00
51719;DHT22;37795;53.236;5.704;2023-04-03T05:23:09;-0.10;75.30
51719;DHT22;37795;53.236;5.704;2023-04-03T05:25:37;-0.10;75.20
51719;DHT22;37795;53.236;5.704;2023-04-03T05:28:03;-0.20;75.20
51719;DHT22;37795;53.236;5.704;2023-04-03T05:30:29;-0.10;75.40
51719;DHT22;37795;53.236;5.704;2023-04-03T05:32:54;-0.10;75.30
51719;DHT22;37795;53.236;5.704;2023-04-03T05:35:21;-0.10;75.30
51719;DHT22;37795;53.236;5.704;2023-04-03T05:37:46;0.00;75.10
51719;DHT22;37795;53.236;5.704;2023-04-03T05:40:12;0.10;74.90
51719;DHT22;37795;53.236;5.704;2023-04-03T05:42:38;0.00;74.50
51719;DHT22;37795;53.236;5.704;2023-04-03T05:45:04;0.10;74.60
51719;DHT22;37795;53.236;5.704;2023-04-03T05:47:30;0.10;74.40
51719;DHT22;37795;53.236;5.704;2023-04-03T05:49:56;0.10;74.40
51719;DHT22;37795;53.236;5.704;2023-04-03T05:52:30;0.20;74.50
51719;DHT22;37795;53.236;5.704;2023-04-03T05:54:56;0.20;74.50
51719;DHT22;37795;53.236;5.704;2023-04-03T05:57:22;0.30;74.40
51719;DHT22;37795;53.236;5.704;2023-04-03T05:59:48;0.20;74.10
51719;DHT22;37795;53.236;5.704;2023-04-03T06:02:17;0.40;74.60
51719;DHT22;37795;53.236;5.704;2023-04-03T06:04:43;0.40;74.60
51719;DHT22;37795;53.236;5.704;2023-04-03T06:07:14;0.40;74.50
51719;DHT22;37795;53.236;5.704;2023-04-03T06:09:41;0.40;74.40
51719;DHT22;37795;53.236;5.704;2023-04-03T06:12:08;0.50;74.50
51719;DHT22;37795;53.236;5.704;2023-04-03T06:14:34;0.60;74.30
51719;DHT22;37795;53.236;5.704;2023-04-03T06:17:00;0.60;74.30
51719;DHT22;37795;53.236;5.704;2023-04-03T06:19:27;0.80;74.40
51719;DHT22;37795;53.236;5.704;2023-04-03T06:21:53;0.80;74.30
51719;DHT22;37795;53.236;5.704;2023-04-03T06:24:18;0.90;74.50
51719;DHT22;37795;53.236;5.704;2023-04-03T06:26:47;1.00;74.50
51719;DHT22;37795;53.236;5.704;2023-04-03T06:29:13;1.10;74.10
51719;DHT22;37795;53.236;5.704;2023-04-03T06:31:39;1.10;74.00
51719;DHT22;37795;53.236;5.704;2023-04-03T06:34:05;1.20;73.90
51719;DHT22;37795;53.236;5.704;2023-04-03T06:36:33;1.20;74.00
51719;DHT22;37795;53.236;5.704;2023-04-03T06:39:00;1.30;73.90
51719;DHT22;37795;53.236;5.704;2023-04-03T06:41:27;1.30;73.30
51719;DHT22;37795;53.236;5.704;2023-04-03T06:43:52;1.40;73.70
51719;DHT22;37795;53.236;5.704;2023-04-03T06:46:20;1.50;73.70
51719;DHT22;37795;53.236;5.704;2023-04-03T06:48:46;1.50;73.60
51719;DHT22;37795;53.236;5.704;2023-04-03T06:57:02;2.10;73.00
51719;DHT22;37795;53.236;5.704;2023-04-03T06:59:28;1.90;72.60
51719;DHT22;37795;53.236;5.704;2023-04-03T07:01:53;1.90;72.60
51719;DHT22;37795;53.236;5.704;2023-04-03T07:04:19;2.10;72.70
51719;DHT22;37795;53.236;5.704;2023-04-03T07:06:46;2.10;72.20
51719;DHT22;37795;53.236;5.704;2023-04-03T07:09:15;2.20;72.10
51719;DHT22;37795;53.236;5.704;2023-04-03T07:11:41;2.40;71.90
51719;DHT22;37795;53.236;5.704;2023-04-03T07:14:07;2.40;71.20
51719;DHT22;37795;53.236;5.704;2023-04-03T07:16:34;2.50;71.10
51719;DHT22;37795;53.236;5.704;2023-04-03T07:19:01;2.60;70.70
51719;DHT22;37795;53.236;5.704;2023-04-03T07:21:28;2.70;69.80
51719;DHT22;37795;53.236;5.704;2023-04-03T07:23:54;2.80;69.70
51719;DHT22;37795;53.236;5.704;2023-04-03T07:26:21;2.90;69.60
51719;DHT22;37795;53.236;5.704;2023-04-03T07:28:47;3.10;69.60
51719;DHT22;37795;53.236;5.704;2023-04-03T07:31:15;3.20;68.90
51719;DHT22;37795;53.236;5.704;2023-04-03T07:33:42;3.30;69.40
51719;DHT22;37795;53.236;5.704;2023-04-03T07:36:10;3.40;68.70
51719;DHT22;37795;53.236;5.704;2023-04-03T07:38:37;3.50;68.50
51719;DHT22;37795;53.236;5.704;2023-04-03T07:41:03;3.60;67.70
51719;DHT22;37795;53.236;5.704;2023-04-03T07:43:30;3.70;67.30
51719;DHT22;37795;53.236;5.704;2023-04-03T07:45:55;3.70;67.50
51719;DHT22;37795;53.236;5.704;2023-04-03T07:48:23;3.90;66.60
51719;DHT22;37795;53.236;5.704;2023-04-03T07:50:49;4.00;66.00
51719;DHT22;37795;53.236;5.704;2023-04-03T07:53:15;4.20;66.10
51719;DHT22;37795;53.236;5.704;2023-04-03T07:55:41;4.30;65.90
51719;DHT22;37795;53.236;5.704;2023-04-03T07:58:12;4.50;65.60
51719;DHT22;37795;53.236;5.704;2023-04-03T08:00:38;4.60;65.10
51719;DHT22;37795;53.236;5.704;2023-04-03T08:03:06;4.70;63.50
51719;DHT22;37795;53.236;5.704;2023-04-03T08:05:39;4.90;63.70
51719;DHT22;37795;53.236;5.704;2023-04-03T08:08:06;5.00;62.10
51719;DHT22;37795;53.236;5.704;2023-04-03T08:10:32;5.00;60.70
51719;DHT22;37795;53.236;5.704;2023-04-03T08:12:58;5.10;60.50
51719;DHT22;37795;53.236;5.704;2023-04-03T08:15:24;5.30;60.20
51719;DHT22;37795;53.236;5.704;2023-04-03T08:17:50;5.50;58.40
51719;DHT22;37795;53.236;5.704;2023-04-03T08:20:16;5.70;57.90
51719;DHT22;37795;53.236;5.704;2023-04-03T08:22:42;6.00;58.30
51719;DHT22;37795;53.236;5.704;2023-04-03T08:25:08;6.00;56.70
51719;DHT22;37795;53.236;5.704;2023-04-03T08:27:34;6.00;56.60
51719;DHT22;37795;53.236;5.704;2023-04-03T08:30:00;6.20;55.80
51719;DHT22;37795;53.236;5.704;2023-04-03T08:32:27;6.40;56.30
51719;DHT22;37795;53.236;5.704;2023-04-03T08:34:53;6.70;56.00
51719;DHT22;37795;53.236;5.704;2023-04-03T08:37:18;6.60;53.60
51719;DHT22;37795;53.236;5.704;2023-04-03T08:39:45;6.70;53.20
51719;DHT22;37795;53.236;5.704;2023-04-03T08:44:46;7.10;54.30
51719;DHT22;37795;53.236;5.704;2023-04-03T08:49:58;7.40;54.00
51719;DHT22;37795;53.236;5.704;2023-04-03T08:54:56;8.00;52.20
51719;DHT22;37795;53.236;5.704;2023-04-03T08:57:33;7.70;51.30
51719;DHT22;37795;53.236;5.704;2023-04-03T09:00:03;7.70;51.60
51719;DHT22;37795;53.236;5.704;2023-04-03T09:02:53;7.90;52.50
51719;DHT22;37795;53.236;5.704;2023-04-03T09:08:01;8.20;50.30
51719;DHT22;37795;53.236;5.704;2023-04-03T09:10:29;8.40;50.50
51719;DHT22;37795;53.236;5.704;2023-04-03T09:13:30;8.50;51.20
51719;DHT22;37795;53.236;5.704;2023-04-03T09:16:00;8.80;49.10
51719;DHT22;37795;53.236;5.704;2023-04-03T09:18:30;8.90;46.70
51719;DHT22;37795;53.236;5.704;2023-04-03T09:23:45;8.90;45.00
51719;DHT22;37795;53.236;5.704;2023-04-03T09:26:18;8.90;46.20
51719;DHT22;37795;53.236;5.704;2023-04-03T09:28:47;9.10;44.90
51719;DHT22;37795;53.236;5.704;2023-04-03T09:33:42;9.50;46.30
51719;DHT22;37795;53.236;5.704;2023-04-03T09:36:07;9.50;45.90
51719;DHT22;37795;53.236;5.704;2023-04-03T09:38:33;10.30;42.20
51719;DHT22;37795;53.236;5.704;2023-04-03T09:41:04;9.90;44.70
51719;DHT22;37795;53.236;5.704;2023-04-03T09:43:32;9.90;43.50
51719;DHT22;37795;53.236;5.704;2023-04-03T09:46:37;9.80;44.60
51719;DHT22;37795;53.236;5.704;2023-04-03T09:49:04;9.80;43.70
51719;DHT22;37795;53.236;5.704;2023-04-03T09:51:31;10.20;42.60
51719;DHT22;37795;53.236;5.704;2023-04-03T09:53:57;10.00;42.50
51719;DHT22;37795;53.236;5.704;2023-04-03T09:56:28;10.30;43.20
51719;DHT22;37795;53.236;5.704;2023-04-03T10:01:32;10.50;41.40
51719;DHT22;37795;53.236;5.704;2023-04-03T10:04:13;10.60;41.90
51719;DHT22;37795;53.236;5.704;2023-04-03T10:06:51;10.50;40.30
51719;DHT22;37795;53.236;5.704;2023-04-03T10:09:23;10.60;41.10
51719;DHT22;37795;53.236;5.704;2023-04-03T10:12:12;10.80;41.70
51719;DHT22;37795;53.236;5.704;2023-04-03T10:14:56;11.00;39.70
51719;DHT22;37795;53.236;5.704;2023-04-03T10:17:37;11.00;39.70
51719;DHT22;37795;53.236;5.704;2023-04-03T10:25:44;10.90;37.90
51719;DHT22;37795;53.236;5.704;2023-04-03T10:28:18;11.30;40.40
51719;DHT22;37795;53.236;5.704;2023-04-03T10:30:54;11.40;37.40
51719;DHT22;37795;53.236;5.704;2023-04-03T10:41:53;11.30;38.60
51719;DHT22;37795;53.236;5.704;2023-04-03T10:47:20;11.50;38.60
51719;DHT22;37795;53.236;5.704;2023-04-03T10:57:05;11.80;34.80
51719;DHT22;37795;53.236;5.704;2023-04-03T10:59:32;12.00;36.70
51719;DHT22;37795;53.236;5.704;2023-04-03T11:02:07;11.90;38.60
51719;DHT22;37795;53.236;5.704;2023-04-03T11:04:40;12.00;37.60
51719;DHT22;37795;53.236;5.704;2023-04-03T11:07:20;12.10;39.00
51719;DHT22;37795;53.236;5.704;2023-04-03T11:09:51;12.10;36.60
51719;DHT22;37795;53.236;5.704;2023-04-03T11:12:44;12.30;38.90
51719;DHT22;37795;53.236;5.704;2023-04-03T11:15:16;12.40;36.90
51719;DHT22;37795;53.236;5.704;2023-04-03T11:18:06;12.40;38.40
51719;DHT22;37795;53.236;5.704;2023-04-03T11:20:33;11.90;37.90
51719;DHT22;37795;53.236;5.704;2023-04-03T11:23:03;12.20;37.90
51719;DHT22;37795;53.236;5.704;2023-04-03T11:25:35;12.20;37.10
51719;DHT22;37795;53.236;5.704;2023-04-03T11:28:05;12.10;37.70
51719;DHT22;37795;53.236;5.704;2023-04-03T11:35:56;12.60;36.10
51719;DHT22;37795;53.236;5.704;2023-04-03T11:38:26;12.90;36.80
51719;DHT22;37795;53.236;5.704;2023-04-03T11:40:55;12.60;37.30
51719;DHT22;37795;53.236;5.704;2023-04-03T11:43:30;12.60;35.70
51719;DHT22;37795;53.236;5.704;2023-04-03T11:46:00;12.60;37.50
51719;DHT22;37795;53.236;5.704;2023-04-03T11:51:00;12.80;38.80
51719;DHT22;37795;53.236;5.704;2023-04-03T11:53:34;13.20;36.50
51719;DHT22;37795;53.236;5.704;2023-04-03T11:56:01;13.20;36.30
51719;DHT22;37795;53.236;5.704;2023-04-03T11:58:32;13.40;37.10
51719;DHT22;37795;53.236;5.704;2023-04-03T12:01:03;13.50;37.10
51719;DHT22;37795;53.236;5.704;2023-04-03T12:03:56;13.50;36.40
51719;DHT22;37795;53.236;5.704;2023-04-03T12:08:54;13.90;36.60
51719;DHT22;37795;53.236;5.704;2023-04-03T12:11:28;13.90;35.60
51719;DHT22;37795;53.236;5.704;2023-04-03T12:30:05;13.80;35.00
51719;DHT22;37795;53.236;5.704;2023-04-03T12:41:04;13.30;35.20
51719;DHT22;37795;53.236;5.704;2023-04-03T12:43:41;12.80;35.00
51719;DHT22;37795;53.236;5.704;2023-04-03T12:48:58;13.60;35.80
51719;DHT22;37795;53.236;5.704;2023-04-03T12:51:38;13.70;36.40
51719;DHT22;37795;53.236;5.704;2023-04-03T12:54:40;13.90;34.40
51719;DHT22;37795;53.236;5.704;2023-04-03T12:57:10;13.20;36.00
51719;DHT22;37795;53.236;5.704;2023-04-03T12:59:37;13.40;36.90
51719;DHT22;37795;53.236;5.704;2023-04-03T13:02:08;13.90;36.50
51719;DHT22;37795;53.236;5.704;2023-04-03T13:04:38;13.70;34.30
51719;DHT22;37795;53.236;5.704;2023-04-03T13:07:04;13.70;37.70
51719;DHT22;37795;53.236;5.704;2023-04-03T13:09:31;13.40;36.20
51719;DHT22;37795;53.236;5.704;2023-04-03T13:12:16;13.50;36.90
51719;DHT22;37795;53.236;5.704;2023-04-03T13:14:56;14.00;35.40
51719;DHT22;37795;53.236;5.704;2023-04-03T13:17:23;13.50;35.70
51719;DHT22;37795;53.236;5.704;2023-04-03T13:19:50;13.80;36.60
51719;DHT22;37795;53.236;5.704;2023-04-03T13:22:35;13.90;36.90
51719;DHT22;37795;53.236;5.704;2023-04-03T13:25:07;14.00;34.30
51719;DHT22;37795;53.236;5.704;2023-04-03T13:27:35;13.60;35.60
51719;DHT22;37795;53.236;5.704;2023-04-03T13:30:05;13.40;35.90
51719;DHT22;37795;53.236;5.704;2023-04-03T13:32:31;14.00;37.50
51719;DHT22;37795;53.236;5.704;2023-04-03T13:34:58;14.10;34.80
51719;DHT22;37795;53.236;5.704;2023-04-03T13:37:31;14.20;35.60
51719;DHT22;37795;53.236;5.704;2023-04-03T13:40:17;14.20;34.40
51719;DHT22;37795;53.236;5.704;2023-04-03T13:42:43;14.30;34.70
51719;DHT22;37795;53.236;5.704;2023-04-03T13:47:44;13.40;35.70
51719;DHT22;37795;53.236;5.704;2023-04-03T13:50:16;13.00;38.40
51719;DHT22;37795;53.236;5.704;2023-04-03T13:52:49;13.50;35.80
51719;DHT22;37795;53.236;5.704;2023-04-03T14:00:50;12.90;37.00
51719;DHT22;37795;53.236;5.704;2023-04-03T14:03:32;13.30;37.20
51719;DHT22;37795;53.236;5.704;2023-04-03T14:05:59;12.60;38.60
51719;DHT22;37795;53.236;5.704;2023-04-03T14:08:25;13.10;37.80
51719;DHT22;37795;53.236;5.704;2023-04-03T14:10:52;13.30;37.30
51719;DHT22;37795;53.236;5.704;2023-04-03T14:13:19;13.10;39.00
51719;DHT22;37795;53.236;5.704;2023-04-03T14:15:47;13.40;37.20
51719;DHT22;37795;53.236;5.704;2023-04-03T14:18:16;13.20;37.30
51719;DHT22;37795;53.236;5.704;2023-04-03T14:20:43;13.10;36.70
51719;DHT22;37795;53.236;5.704;2023-04-03T14:23:09;12.90;36.50
51719;DHT22;37795;53.236;5.704;2023-04-03T14:25:36;12.70;36.90
51719;DHT22;37795;53.236;5.704;2023-04-03T14:28:06;12.50;36.50
51719;DHT22;37795;53.236;5.704;2023-04-03T14:30:38;12.50;37.90
51719;DHT22;37795;53.236;5.704;2023-04-03T14:33:03;12.70;37.80
51719;DHT22;37795;53.236;5.704;2023-04-03T14:35:29;12.50;37.00
51719;DHT22;37795;53.236;5.704;2023-04-03T14:37:55;12.80;37.70
51719;DHT22;37795;53.236;5.704;2023-04-03T14:40:26;12.80;37.90
51719;DHT22;37795;53.236;5.704;2023-04-03T14:42:53;13.20;37.60
51719;DHT22;37795;53.236;5.704;2023-04-03T14:45:21;13.00;37.40
51719;DHT22;37795;53.236;5.704;2023-04-03T14:47:49;12.90;36.90
51719;DHT22;37795;53.236;5.704;2023-04-03T14:50:21;12.80;38.30
51719;DHT22;37795;53.236;5.704;2023-04-03T14:52:49;12.50;37.20
51719;DHT22;37795;53.236;5.704;2023-04-03T14:55:18;12.70;39.60
51719;DHT22;37795;53.236;5.704;2023-04-03T14:57:44;13.00;37.00
51719;DHT22;37795;53.236;5.704;2023-04-03T15:00:15;12.70;37.40
51719;DHT22;37795;53.236;5.704;2023-04-03T15:02:41;12.40;37.70
51719;DHT22;37795;53.236;5.704;2023-04-03T15:05:09;12.60;37.40
51719;DHT22;37795;53.236;5.704;2023-04-03T15:07:47;12.60;37.60
51719;DHT22;37795;53.236;5.704;2023-04-03T15:10:28;13.10;38.10
51719;DHT22;37795;53.236;5.704;2023-04-03T15:12:54;12.80;38.00
51719;DHT22;37795;53.236;5.704;2023-04-03T15:15:21;12.70;40.30
51719;DHT22;37795;53.236;5.704;2023-04-03T15:17:51;12.60;42.10
51719;DHT22;37795;53.236;5.704;2023-04-03T15:20:22;12.20;42.20
51719;DHT22;37795;53.236;5.704;2023-04-03T15:22:48;12.20;42.80
51719;DHT22;37795;53.236;5.704;2023-04-03T15:25:14;11.40;43.40
51719;DHT22;37795;53.236;5.704;2023-04-03T15:27:41;11.60;43.90
51719;DHT22;37795;53.236;5.704;2023-04-03T15:30:11;11.60;43.30
51719;DHT22;37795;53.236;5.704;2023-04-03T15:32:37;11.20;43.50
51719;DHT22;37795;53.236;5.704;2023-04-03T15:35:02;11.30;43.70
51719;DHT22;37795;53.236;5.704;2023-04-03T15:37:28;11.10;45.80
51719;DHT22;37795;53.236;5.704;2023-04-03T15:39:54;10.90;45.20
51719;DHT22;37795;53.236;5.704;2023-04-03T15:42:20;10.70;44.80
51719;DHT22;37795;53.236;5.704;2023-04-03T15:44:45;10.10;45.70
51719;DHT22;37795;53.236;5.704;2023-04-03T15:47:11;10.40;46.60
51719;DHT22;37795;53.236;5.704;2023-04-03T15:49:38;10.60;46.30
51719;DHT22;37795;53.236;5.704;2023-04-03T15:52:04;10.40;45.70
51719;DHT22;37795;53.236;5.704;2023-04-03T15:54:30;10.30;45.60
51719;DHT22;37795;53.236;5.704;2023-04-03T15:56:55;10.30;45.60
51719;DHT22;37795;53.236;5.704;2023-04-03T15:59:21;10.30;45.60
51719;DHT22;37795;53.236;5.704;2023-04-03T16:01:48;10.20;44.90
51719;DHT22;37795;53.236;5.704;2023-04-03T16:04:14;9.80;45.10
51719;DHT22;37795;53.236;5.704;2023-04-03T16:06:40;9.60;45.80
51719;DHT22;37795;53.236;5.704;2023-04-03T16:09:07;9.80;45.20
51719;DHT22;37795;53.236;5.704;2023-04-03T16:11:33;9.80;46.20
51719;DHT22;37795;53.236;5.704;2023-04-03T16:14:01;9.40;45.60
51719;DHT22;37795;53.236;5.704;2023-04-03T16:16:27;9.60;45.20
51719;DHT22;37795;53.236;5.704;2023-04-03T16:18:54;9.40;45.30
51719;DHT22;37795;53.236;5.704;2023-04-03T16:21:21;9.10;45.30
51719;DHT22;37795;53.236;5.704;2023-04-03T16:23:47;8.80;45.70
51719;DHT22;37795;53.236;5.704;2023-04-03T16:26:14;8.80;45.40
51719;DHT22;37795;53.236;5.704;2023-04-03T16:28:39;8.80;46.30
51719;DHT22;37795;53.236;5.704;2023-04-03T16:31:06;8.90;45.90
51719;DHT22;37795;53.236;5.704;2023-04-03T16:33:33;9.00;45.30
51719;DHT22;37795;53.236;5.704;2023-04-03T16:35:58;8.90;46.10
51719;DHT22;37795;53.236;5.704;2023-04-03T16:38:25;9.00;46.40
51719;DHT22;37795;53.236;5.704;2023-04-03T16:40:50;9.00;46.70
51719;DHT22;37795;53.236;5.704;2023-04-03T16:43:17;8.90;45.80
51719;DHT22;37795;53.236;5.704;2023-04-03T16:45:43;8.50;46.60
51719;DHT22;37795;53.236;5.704;2023-04-03T16:48:09;8.20;47.60
51719;DHT22;37795;53.236;5.704;2023-04-03T16:50:35;8.40;47.80
51719;DHT22;37795;53.236;5.704;2023-04-03T16:53:01;8.40;47.30
51719;DHT22;37795;53.236;5.704;2023-04-03T16:55:28;8.30;47.80
51719;DHT22;37795;53.236;5.704;2023-04-03T16:57:54;8.20;47.70
51719;DHT22;37795;53.236;5.704;2023-04-03T17:00:20;7.90;48.20
51719;DHT22;37795;53.236;5.704;2023-04-03T17:02:46;8.20;49.40
51719;DHT22;37795;53.236;5.704;2023-04-03T17:05:12;8.10;49.90
51719;DHT22;37795;53.236;5.704;2023-04-03T17:07:38;8.10;50.00
51719;DHT22;37795;53.236;5.704;2023-04-03T17:10:04;7.90;49.90
51719;DHT22;37795;53.236;5.704;2023-04-03T17:12:30;7.90;48.80
51719;DHT22;37795;53.236;5.704;2023-04-03T17:14:55;8.10;49.30
51719;DHT22;37795;53.236;5.704;2023-04-03T17:17:23;7.80;49.50
51719;DHT22;37795;53.236;5.704;2023-04-03T17:19:50;8.10;49.80
51719;DHT22;37795;53.236;5.704;2023-04-03T17:22:16;7.90;49.40
51719;DHT22;37795;53.236;5.704;2023-04-03T17:24:43;7.80;48.70
51719;DHT22;37795;53.236;5.704;2023-04-03T17:27:09;7.70;49.40